createdAt,value
2022-09-14T00:00:28.001Z,3.97
2022-09-14T00:03:12.049Z,4.00
2022-09-14T00:05:43.864Z,3.97
2022-09-14T00:08:18.511Z,3.63
2022-09-14T00:10:49.702Z,3.83
2022-09-14T00:13:21.433Z,4.70
2022-09-14T00:16:02.746Z,4.80
2022-09-14T00:18:33.740Z,4.70
2022-09-14T00:21:12.704Z,4.90
2022-09-14T00:23:43.292Z,4.47
2022-09-14T00:26:15.346Z,4.60
2022-09-14T00:31:16.092Z,4.00
2022-09-14T00:33:50.725Z,4.82
2022-09-14T00:36:24.045Z,4.90
2022-09-14T00:39:02.055Z,5.65
2022-09-14T00:45:19.695Z,5.10
2022-09-14T00:48:06.930Z,4.68
2022-09-14T00:56:41.400Z,5.43
2022-09-14T01:02:16.306Z,5.10
2022-09-14T01:04:51.524Z,5.55
2022-09-14T01:07:28.519Z,4.75
2022-09-14T01:10:05.443Z,4.93
2022-09-14T01:12:42.526Z,5.20
2022-09-14T01:15:21.850Z,6.00
2022-09-14T01:17:59.711Z,5.07
2022-09-14T01:20:41.653Z,5.47
2022-09-14T01:23:27.908Z,6.03
2022-09-14T01:26:43.793Z,5.78
2022-09-14T01:29:52.727Z,5.40
2022-09-14T01:33:07.071Z,5.70
2022-09-14T01:35:40.113Z,5.60
2022-09-14T01:38:12.437Z,5.43
2022-09-14T01:40:59.438Z,6.07
2022-09-14T01:43:36.806Z,6.20
2022-09-14T01:49:14.465Z,5.47
2022-09-14T01:52:12.852Z,5.82
2022-09-14T01:54:47.642Z,6.03
2022-09-14T01:57:23.938Z,5.90
2022-09-14T01:59:55.977Z,6.20
2022-09-14T02:02:33.159Z,6.10
2022-09-14T02:05:14.864Z,6.80
2022-09-14T02:07:44.339Z,6.30
2022-09-14T02:10:16.880Z,6.72
2022-09-14T02:12:45.617Z,6.10
2022-09-14T02:15:28.834Z,6.97
2022-09-14T02:18:15.832Z,6.65
2022-09-14T02:21:07.582Z,6.65
2022-09-14T02:23:37.638Z,10.55
2022-09-14T02:26:45.050Z,11.85
2022-09-14T02:29:16.874Z,6.43
2022-09-14T02:32:05.128Z,6.70
2022-09-14T02:34:54.281Z,14.15
2022-09-14T02:37:34.194Z,8.27
2022-09-14T02:43:39.685Z,6.50
2022-09-14T02:46:16.788Z,7.00
2022-09-14T02:49:01.337Z,7.22
2022-09-14T02:51:40.051Z,7.75
2022-09-14T03:00:04.017Z,7.03
2022-09-14T03:02:38.865Z,6.57
2022-09-14T03:05:25.548Z,7.18
2022-09-14T03:08:17.346Z,6.55
2022-09-14T03:10:53.224Z,8.10
2022-09-14T03:13:29.469Z,6.80
2022-09-14T03:16:44.436Z,6.40
2022-09-14T03:25:42.753Z,6.95
2022-09-14T03:31:31.751Z,6.93
2022-09-14T03:47:14.493Z,6.55
2022-09-14T03:56:22.170Z,8.30
2022-09-14T04:05:26.622Z,7.18
2022-09-14T04:07:57.654Z,7.28
2022-09-14T04:13:45.069Z,6.57
2022-09-14T04:16:38.377Z,7.13
2022-09-14T04:19:44.617Z,7.63
2022-09-14T04:26:12.843Z,6.93
2022-09-14T04:28:41.184Z,6.93
2022-09-14T04:31:13.497Z,7.63
2022-09-14T04:37:01.595Z,7.10
2022-09-14T04:39:58.557Z,7.40
2022-09-14T04:42:30.554Z,7.07
2022-09-14T04:45:15.382Z,6.93
2022-09-14T04:47:53.820Z,7.47
2022-09-14T04:50:24.967Z,7.35
2022-09-14T04:52:53.468Z,7.18
2022-09-14T04:55:24.388Z,8.30
2022-09-14T04:57:52.525Z,8.00
2022-09-14T05:00:30.921Z,7.32
2022-09-14T05:03:01.671Z,7.07
2022-09-14T05:05:29.894Z,8.70
2022-09-14T05:07:58.141Z,8.05
2022-09-14T05:10:29.766Z,7.75
2022-09-14T05:12:57.955Z,8.25
2022-09-14T05:15:26.280Z,7.97
2022-09-14T05:17:54.218Z,8.05
2022-09-14T05:20:22.504Z,8.57
2022-09-14T05:22:51.257Z,8.48
2022-09-14T05:25:19.567Z,7.50
2022-09-14T05:27:49.437Z,7.35
2022-09-14T05:30:17.791Z,6.80
2022-09-14T05:32:46.003Z,7.80
2022-09-14T05:35:15.466Z,7.07
2022-09-14T05:37:43.517Z,7.07
2022-09-14T05:40:13.380Z,7.13
2022-09-14T05:42:41.784Z,6.00
2022-09-14T05:45:12.087Z,6.18
2022-09-14T05:47:40.160Z,6.28
2022-09-14T05:50:09.441Z,5.85
2022-09-14T05:52:38.487Z,5.97
2022-09-14T05:55:07.127Z,5.97
2022-09-14T05:57:35.256Z,6.35
2022-09-14T06:00:04.868Z,4.50
2022-09-14T06:02:34.595Z,4.68
2022-09-14T06:05:02.633Z,4.55
2022-09-14T06:07:30.969Z,4.90
2022-09-14T06:09:58.967Z,4.30
2022-09-14T06:12:27.644Z,4.38
2022-09-14T06:14:55.613Z,4.05
2022-09-14T06:17:23.760Z,3.97
2022-09-14T06:19:53.149Z,4.20
2022-09-14T06:22:21.413Z,3.53
2022-09-14T06:24:49.497Z,3.70
2022-09-14T06:27:17.634Z,3.83
2022-09-14T06:29:45.600Z,3.45
2022-09-14T06:32:13.578Z,3.45
2022-09-14T06:34:41.842Z,3.50
2022-09-14T06:37:11.403Z,3.65
2022-09-14T06:39:39.556Z,3.22
2022-09-14T06:42:07.818Z,3.13
2022-09-14T06:44:35.942Z,3.40
2022-09-14T06:47:04.035Z,2.97
2022-09-14T06:49:32.292Z,2.72
2022-09-14T06:52:00.993Z,2.92
2022-09-14T06:54:30.430Z,2.47
2022-09-14T06:56:58.808Z,2.50
2022-09-14T06:59:27.172Z,3.05
2022-09-14T07:01:55.178Z,2.45
2022-09-14T07:04:24.988Z,2.50
2022-09-14T07:06:53.160Z,2.38
2022-09-14T07:09:22.469Z,2.90
2022-09-14T07:11:51.875Z,2.88
2022-09-14T07:14:21.138Z,2.80
2022-09-14T07:16:49.495Z,3.08
2022-09-14T07:19:17.698Z,2.72
2022-09-14T07:21:45.814Z,2.80
2022-09-14T07:24:14.821Z,3.17
2022-09-14T07:26:43.728Z,3.42
2022-09-14T07:29:16.067Z,2.75
2022-09-14T07:34:13.088Z,2.53
2022-09-14T07:36:44.629Z,2.67
2022-09-14T07:39:14.236Z,2.03
2022-09-14T07:41:43.341Z,3.78
2022-09-14T07:44:16.419Z,2.65
2022-09-14T07:46:45.586Z,2.50
2022-09-14T07:49:15.640Z,2.30
2022-09-14T07:51:44.088Z,2.03
2022-09-14T07:54:14.056Z,2.35
2022-09-14T07:56:43.445Z,2.53
2022-09-14T07:59:34.568Z,2.35
2022-09-14T08:02:02.385Z,1.90
2022-09-14T08:04:30.613Z,2.13
2022-09-14T08:06:59.087Z,2.33
2022-09-14T08:09:27.816Z,2.05
2022-09-14T08:11:57.206Z,1.95
2022-09-14T08:14:25.408Z,2.55
2022-09-14T08:16:53.853Z,2.22
2022-09-14T08:19:23.783Z,1.92
2022-09-14T08:21:52.318Z,1.98
2022-09-14T08:24:22.444Z,2.22
2022-09-14T08:26:50.866Z,3.03
2022-09-14T08:29:20.217Z,2.42
2022-09-14T08:31:51.915Z,2.17
2022-09-14T08:34:21.073Z,2.45
2022-09-14T08:36:50.893Z,1.95
2022-09-14T08:39:19.791Z,2.33
2022-09-14T08:41:53.770Z,2.17
2022-09-14T08:44:25.855Z,2.30
2022-09-14T08:46:59.230Z,2.17
2022-09-14T08:49:37.802Z,1.90
2022-09-14T08:52:13.588Z,1.70
2022-09-14T08:54:44.908Z,2.25
2022-09-14T08:57:20.451Z,2.63
2022-09-14T08:59:53.822Z,1.85
2022-09-14T09:02:29.917Z,1.83
2022-09-14T09:05:02.888Z,2.30
2022-09-14T09:07:35.887Z,1.63
2022-09-14T09:10:05.661Z,2.00
2022-09-14T09:12:38.302Z,2.08
2022-09-14T09:15:17.095Z,2.40
2022-09-14T09:17:47.290Z,2.17
2022-09-14T09:20:19.396Z,1.50
2022-09-14T09:25:56.610Z,2.58
2022-09-14T09:28:26.758Z,1.90
2022-09-14T09:30:55.755Z,2.33
2022-09-14T09:33:25.898Z,2.05
2022-09-14T09:35:55.584Z,2.00
2022-09-14T09:38:28.158Z,2.72
2022-09-14T09:40:58.747Z,2.10
2022-09-14T09:43:45.782Z,2.65
2022-09-14T09:46:16.628Z,1.95
2022-09-14T09:48:47.167Z,2.38
2022-09-14T09:51:20.888Z,1.67
2022-09-14T09:53:55.889Z,2.65
2022-09-14T09:56:37.921Z,2.00
2022-09-14T09:59:24.361Z,2.00
2022-09-14T10:01:55.773Z,2.00
2022-09-14T10:04:28.152Z,2.05
2022-09-14T10:09:29.089Z,1.70
2022-09-14T10:11:59.564Z,1.83
2022-09-14T10:14:31.398Z,2.03
2022-09-14T10:19:35.131Z,1.65
2022-09-14T10:22:24.271Z,1.63
2022-09-14T10:25:22.205Z,1.50
2022-09-14T10:27:59.104Z,2.20
2022-09-14T10:30:28.901Z,1.85
2022-09-14T10:33:00.546Z,1.60
2022-09-14T10:35:35.482Z,2.10
2022-09-14T10:38:12.190Z,2.40
2022-09-14T10:40:44.827Z,1.85
2022-09-14T10:43:17.204Z,1.98
2022-09-14T10:45:50.853Z,1.83
2022-09-14T10:48:30.976Z,1.80
2022-09-14T10:51:07.290Z,1.45
2022-09-14T10:53:44.541Z,1.85
2022-09-14T10:56:19.024Z,1.75
2022-09-14T10:59:04.762Z,1.77
2022-09-14T11:01:44.764Z,1.70
2022-09-14T11:04:24.414Z,1.85
2022-09-14T11:06:56.592Z,2.30
2022-09-14T11:12:04.845Z,1.95
2022-09-14T11:14:42.509Z,1.92
2022-09-14T11:17:22.986Z,2.40
2022-09-14T11:19:55.682Z,1.92
2022-09-14T11:22:32.220Z,2.25
2022-09-14T11:25:04.998Z,2.30
2022-09-14T11:27:39.058Z,2.05
2022-09-14T11:30:13.102Z,2.05
2022-09-14T11:32:44.727Z,1.60
2022-09-14T11:35:16.311Z,1.70
2022-09-14T11:37:48.222Z,2.00
2022-09-14T11:40:20.345Z,1.75
2022-09-14T11:42:57.147Z,2.00
2022-09-14T11:45:29.344Z,1.95
2022-09-14T11:50:33.338Z,1.88
2022-09-14T11:53:05.428Z,1.98
2022-09-14T11:55:33.753Z,2.30
2022-09-14T11:58:07.093Z,2.22
2022-09-14T12:01:01.698Z,2.00
2022-09-14T12:04:00.361Z,1.92
2022-09-14T12:06:51.317Z,2.42
2022-09-14T12:09:43.644Z,2.00
2022-09-14T12:12:32.989Z,2.10
2022-09-14T12:15:03.663Z,1.90
2022-09-14T12:17:40.038Z,1.60
2022-09-14T12:20:30.594Z,2.10
2022-09-14T12:23:20.824Z,1.80
2022-09-14T12:26:13.428Z,2.15
2022-09-14T12:31:36.061Z,2.15
2022-09-14T12:34:16.330Z,1.60
2022-09-14T12:37:08.672Z,1.65
2022-09-14T12:39:39.365Z,2.00
2022-09-14T12:42:28.878Z,1.80
2022-09-14T12:44:57.123Z,1.95
2022-09-14T12:47:52.404Z,2.25
2022-09-14T12:50:23.021Z,1.60
2022-09-14T12:53:12.444Z,2.08
2022-09-14T12:55:46.231Z,1.67
2022-09-14T12:58:24.439Z,2.22
2022-09-14T13:00:59.749Z,2.65
2022-09-14T13:03:49.697Z,2.08
2022-09-14T13:06:18.736Z,2.10
2022-09-14T13:08:48.800Z,1.40
2022-09-14T13:11:22.546Z,2.13
2022-09-14T13:13:51.073Z,1.77
2022-09-14T13:16:26.199Z,2.25
2022-09-14T13:19:06.437Z,2.17
2022-09-14T13:21:37.059Z,1.52
2022-09-14T13:24:19.335Z,2.13
2022-09-14T13:26:47.415Z,2.63
2022-09-14T13:29:15.951Z,1.83
2022-09-14T13:31:46.216Z,2.08
2022-09-14T13:34:22.022Z,1.55
2022-09-14T13:36:50.515Z,1.80
2022-09-14T13:39:25.775Z,1.90
2022-09-14T13:41:54.551Z,1.90
2022-09-14T13:44:25.528Z,1.80
2022-09-14T13:46:54.130Z,1.70
2022-09-14T13:49:24.060Z,1.92
2022-09-14T13:51:52.242Z,2.60
2022-09-14T13:54:29.601Z,1.83
2022-09-14T13:57:14.194Z,2.42
2022-09-14T14:00:05.456Z,1.67
2022-09-14T14:02:36.781Z,2.30
2022-09-14T14:05:07.671Z,1.67
2022-09-14T14:07:36.508Z,2.08
2022-09-14T14:10:04.867Z,1.90
2022-09-14T14:12:36.897Z,2.47
2022-09-14T14:15:09.411Z,2.50
2022-09-14T14:17:39.447Z,1.90
2022-09-14T14:20:31.128Z,2.05
2022-09-14T14:23:06.938Z,2.10
2022-09-14T14:25:40.989Z,2.10
2022-09-14T14:28:17.918Z,2.40
2022-09-14T14:30:50.558Z,1.88
2022-09-14T14:33:20.025Z,2.25
2022-09-14T14:35:51.947Z,1.75
2022-09-14T14:38:20.503Z,1.67
2022-09-14T14:40:49.001Z,2.00
2022-09-14T14:43:19.917Z,2.08
2022-09-14T14:45:49.136Z,2.30
2022-09-14T14:48:18.325Z,1.80
2022-09-14T14:50:47.498Z,1.88
2022-09-14T14:53:17.631Z,2.80
2022-09-14T14:55:46.304Z,2.63
2022-09-14T14:58:17.350Z,2.28
2022-09-14T15:00:49.364Z,2.10
2022-09-14T15:03:22.001Z,1.95
2022-09-14T15:05:50.630Z,2.22
2022-09-14T15:08:23.219Z,2.30
2022-09-14T15:10:57.126Z,1.83
2022-09-14T15:13:26.772Z,2.47
2022-09-14T15:15:55.276Z,2.72
2022-09-14T15:18:23.468Z,1.98
2022-09-14T15:20:54.999Z,2.03
2022-09-14T15:23:25.951Z,3.42
2022-09-14T15:25:54.556Z,1.73
2022-09-14T15:28:23.253Z,2.42
2022-09-14T15:30:51.923Z,2.05
2022-09-14T15:33:21.693Z,2.20
2022-09-14T15:35:56.116Z,2.17
2022-09-14T15:38:25.707Z,2.20
2022-09-14T15:40:54.007Z,1.98
2022-09-14T15:43:22.380Z,2.10
2022-09-14T15:45:50.589Z,2.20
2022-09-14T15:48:24.890Z,2.15
2022-09-14T15:50:54.179Z,2.20
2022-09-14T15:53:22.209Z,2.10
2022-09-14T15:55:52.830Z,2.45
2022-09-14T15:58:21.327Z,2.00
2022-09-14T16:00:49.962Z,1.95
2022-09-14T16:03:18.680Z,2.35
2022-09-14T16:05:47.137Z,2.00
2022-09-14T16:08:16.316Z,2.15
2022-09-14T16:10:44.394Z,2.50
2022-09-14T16:13:13.787Z,2.20
2022-09-14T16:15:42.511Z,2.67
2022-09-14T16:18:10.634Z,2.22
2022-09-14T16:20:39.129Z,2.25
2022-09-14T16:23:07.724Z,2.42
2022-09-14T16:25:40.984Z,2.30
2022-09-14T16:28:09.150Z,1.88
2022-09-14T16:30:38.556Z,1.83
2022-09-14T16:33:07.940Z,1.98
2022-09-14T16:35:36.123Z,1.88
2022-09-14T16:38:05.327Z,2.47
2022-09-14T16:40:34.158Z,2.45
2022-09-14T16:43:02.467Z,2.65
2022-09-14T16:45:30.686Z,1.90
2022-09-14T16:48:00.211Z,2.10
2022-09-14T16:50:28.482Z,2.20
2022-09-14T16:52:56.439Z,1.92
2022-09-14T16:55:24.622Z,3.08
2022-09-14T16:57:53.182Z,3.13
2022-09-14T17:00:21.460Z,2.60
2022-09-14T17:02:53.310Z,2.03
2022-09-14T17:05:26.508Z,1.77
2022-09-14T17:07:59.267Z,2.10
2022-09-14T17:10:27.433Z,2.80
2022-09-14T17:12:55.984Z,2.30
2022-09-14T17:15:24.038Z,2.20
2022-09-14T17:17:52.447Z,3.25
2022-09-14T17:20:20.698Z,2.58
2022-09-14T17:22:50.337Z,2.80
2022-09-14T17:25:18.821Z,1.80
2022-09-14T17:27:47.197Z,2.72
2022-09-14T17:30:15.935Z,2.40
2022-09-14T17:32:44.131Z,3.70
2022-09-14T17:35:12.159Z,2.00
2022-09-14T17:37:40.559Z,2.15
2022-09-14T17:40:11.335Z,3.35
2022-09-14T17:42:39.776Z,2.47
2022-09-14T17:45:10.471Z,2.85
2022-09-14T17:47:38.704Z,2.95
2022-09-14T17:50:09.834Z,2.58
2022-09-14T17:52:39.598Z,3.33
2022-09-14T17:55:09.660Z,2.55
2022-09-14T17:57:40.133Z,2.10
2022-09-14T18:00:10.343Z,2.83
2022-09-14T18:02:38.719Z,2.45
2022-09-14T18:05:07.740Z,1.85
2022-09-14T18:07:38.249Z,2.60
2022-09-14T18:10:08.103Z,2.70
2022-09-14T18:12:39.857Z,2.60
2022-09-14T18:15:15.432Z,2.47
2022-09-14T18:17:45.934Z,2.35
2022-09-14T18:20:15.587Z,2.65
2022-09-14T18:22:44.028Z,2.40
2022-09-14T18:25:15.250Z,2.75
2022-09-14T18:27:43.562Z,2.67
2022-09-14T18:30:14.659Z,2.53
2022-09-14T18:32:42.728Z,3.25
2022-09-14T18:35:13.034Z,2.92
2022-09-14T18:37:43.526Z,2.33
2022-09-14T18:40:12.037Z,2.60
2022-09-14T18:42:40.543Z,2.50
2022-09-14T18:45:10.116Z,2.65
2022-09-14T18:47:40.344Z,3.08
2022-09-14T18:50:09.310Z,3.22
2022-09-14T18:52:37.791Z,2.70
2022-09-14T18:55:06.877Z,2.97
2022-09-14T18:57:35.428Z,3.20
2022-09-14T19:00:05.309Z,2.75
2022-09-14T19:02:33.434Z,3.08
2022-09-14T19:05:05.690Z,3.10
2022-09-14T19:07:36.809Z,2.60
2022-09-14T19:10:10.912Z,2.67
2022-09-14T19:12:40.715Z,3.80
2022-09-14T19:15:09.731Z,3.13
2022-09-14T19:17:38.165Z,3.38
2022-09-14T19:20:09.214Z,2.95
2022-09-14T19:22:38.023Z,2.95
2022-09-14T19:25:10.413Z,2.60
2022-09-14T19:30:11.192Z,2.90
2022-09-14T19:35:09.521Z,3.40
2022-09-14T19:37:39.678Z,3.90
2022-09-14T19:40:09.850Z,3.25
2022-09-14T19:42:39.524Z,3.58
2022-09-14T19:45:09.183Z,3.80
2022-09-14T19:47:37.778Z,3.10
2022-09-14T19:50:07.113Z,3.35
2022-09-14T19:52:36.620Z,3.20
2022-09-14T19:55:09.002Z,3.25
2022-09-14T20:00:15.154Z,2.78
2022-09-14T20:02:46.770Z,3.05
2022-09-14T20:05:15.972Z,3.65
2022-09-14T20:07:47.729Z,3.35
2022-09-14T20:10:18.220Z,3.50
2022-09-14T20:12:47.223Z,3.15
2022-09-14T20:15:15.430Z,3.08
2022-09-14T20:17:43.825Z,3.28
2022-09-14T20:20:15.757Z,3.22
2022-09-14T20:22:46.385Z,3.85
2022-09-14T20:25:16.940Z,3.70
2022-09-14T20:27:46.693Z,3.10
2022-09-14T20:30:18.404Z,3.20
2022-09-14T20:32:47.562Z,3.75
2022-09-14T20:35:15.732Z,3.17
2022-09-14T20:37:45.215Z,3.60
2022-09-14T20:40:14.460Z,4.55
2022-09-14T20:42:44.292Z,3.17
2022-09-14T20:45:12.601Z,3.97
2022-09-14T20:47:40.897Z,3.72
2022-09-14T20:50:09.563Z,3.67
2022-09-14T20:52:37.874Z,3.40
2022-09-14T20:55:10.526Z,3.45
2022-09-14T20:57:42.766Z,3.78
2022-09-14T21:00:12.672Z,4.25
2022-09-14T21:02:40.946Z,4.20
2022-09-14T21:05:10.460Z,3.63
2022-09-14T21:07:38.613Z,3.53
2022-09-14T21:10:09.877Z,3.80
2022-09-14T21:12:37.982Z,4.00
2022-09-14T21:15:07.351Z,3.60
2022-09-14T21:17:36.322Z,3.88
2022-09-14T21:20:05.715Z,3.83
2022-09-14T21:22:35.837Z,3.67
2022-09-14T21:25:06.663Z,4.13
2022-09-14T21:27:36.345Z,4.13
2022-09-14T21:30:05.028Z,4.47
2022-09-14T21:32:33.379Z,5.30
2022-09-14T21:35:04.416Z,4.47
2022-09-14T21:37:32.660Z,4.90
2022-09-14T21:40:00.867Z,4.88
2022-09-14T21:42:30.399Z,4.55
2022-09-14T21:45:00.667Z,4.82
2022-09-14T21:47:29.690Z,4.97
2022-09-14T21:49:57.970Z,4.88
2022-09-14T21:52:26.112Z,5.03
2022-09-14T21:54:54.517Z,4.28
2022-09-14T21:57:22.670Z,4.35
2022-09-14T21:59:51.005Z,4.80
2022-09-14T22:02:21.698Z,4.40
2022-09-14T22:04:52.111Z,4.53
2022-09-14T22:07:20.532Z,5.10
2022-09-14T22:09:48.730Z,3.65
2022-09-14T22:12:18.202Z,4.72
2022-09-14T22:14:46.493Z,4.55
2022-09-14T22:17:14.791Z,4.75
2022-09-14T22:19:45.122Z,4.82
2022-09-14T22:22:13.445Z,5.65
2022-09-14T22:24:42.699Z,4.97
2022-09-14T22:27:11.653Z,5.03
2022-09-14T22:29:41.028Z,5.85
2022-09-14T22:32:11.878Z,5.82
2022-09-14T22:34:40.850Z,5.60
2022-09-14T22:37:10.299Z,4.95
2022-09-14T22:39:39.010Z,6.13
2022-09-14T22:42:08.196Z,6.28
2022-09-14T22:44:36.965Z,5.50
2022-09-14T22:47:06.716Z,6.15
2022-09-14T22:49:35.111Z,6.25
2022-09-14T22:52:03.692Z,5.65
2022-09-14T22:54:33.336Z,7.15
2022-09-14T22:57:01.922Z,6.55
2022-09-14T22:59:30.244Z,5.78
2022-09-14T23:01:59.325Z,5.85
2022-09-14T23:04:28.214Z,6.97
2022-09-14T23:06:56.504Z,7.30
2022-09-14T23:09:24.653Z,6.80
2022-09-14T23:11:55.455Z,7.05
2022-09-14T23:14:24.139Z,7.15
2022-09-14T23:16:52.618Z,6.90
2022-09-14T23:19:20.970Z,7.00
2022-09-14T23:21:49.592Z,7.50
2022-09-14T23:24:17.992Z,7.28
2022-09-14T23:26:46.524Z,6.95
2022-09-14T23:29:19.844Z,7.07
2022-09-14T23:31:48.970Z,7.38
2022-09-14T23:34:18.864Z,7.47
2022-09-14T23:36:47.047Z,8.25
2022-09-14T23:39:15.260Z,7.55
2022-09-14T23:41:43.825Z,8.43
2022-09-14T23:44:13.890Z,8.57
2022-09-14T23:46:43.782Z,7.80
2022-09-14T23:49:12.663Z,9.27
2022-09-14T23:51:41.290Z,8.73
2022-09-14T23:54:09.741Z,8.50
2022-09-14T23:56:38.788Z,9.27
2022-09-14T23:59:10.395Z,8.52
